sensor_id;sensor_type;location;lat;lon;timestamp;temperature;humidity
15630;DHT22;7914;50.842;0.166;2023-04-15T00:00:33;7.50;100.00
15630;DHT22;7914;50.842;0.166;2023-04-15T00:03:12;7.50;100.00
15630;DHT22;7914;50.842;0.166;2023-04-15T00:05:37;7.40;100.00
15630;DHT22;7914;50.842;0.166;2023-04-15T00:08:03;7.50;100.00
15630;DHT22;7914;50.842;0.166;2023-04-15T00:10:29;7.50;100.00
15630;DHT22;7914;50.842;0.166;2023-04-15T00:12:55;7.50;100.00
15630;DHT22;7914;50.842;0.166;2023-04-15T00:15:21;7.50;100.00
15630;DHT22;7914;50.842;0.166;2023-04-15T00:17:49;7.50;100.00
15630;DHT22;7914;50.842;0.166;2023-04-15T00:20:16;7.50;100.00
15630;DHT22;7914;50.842;0.166;2023-04-15T00:22:42;7.50;100.00
15630;DHT22;7914;50.842;0.166;2023-04-15T00:25:08;7.40;100.00
15630;DHT22;7914;50.842;0.166;2023-04-15T00:27:34;7.40;100.00
15630;DHT22;7914;50.842;0.166;2023-04-15T00:30:15;7.30;100.00
15630;DHT22;7914;50.842;0.166;2023-04-15T00:32:41;7.30;100.00
15630;DHT22;7914;50.842;0.166;2023-04-15T00:35:07;7.20;100.00
15630;DHT22;7914;50.842;0.166;2023-04-15T00:37:33;7.20;100.00
15630;DHT22;7914;50.842;0.166;2023-04-15T00:40:00;7.10;100.00
15630;DHT22;7914;50.842;0.166;2023-04-15T00:42:26;7.00;100.00
15630;DHT22;7914;50.842;0.166;2023-04-15T00:44:52;7.00;100.00
15630;DHT22;7914;50.842;0.166;2023-04-15T00:47:19;6.90;100.00
15630;DHT22;7914;50.842;0.166;2023-04-15T00:49:46;6.80;100.00
15630;DHT22;7914;50.842;0.166;2023-04-15T00:52:12;6.80;100.00
15630;DHT22;7914;50.842;0.166;2023-04-15T00:54:38;6.80;100.00
15630;DHT22;7914;50.842;0.166;2023-04-15T00:57:05;6.70;100.00
15630;DHT22;7914;50.842;0.166;2023-04-15T00:59:32;6.80;100.00
15630;DHT22;7914;50.842;0.166;2023-04-15T01:01:58;6.70;100.00
15630;DHT22;7914;50.842;0.166;2023-04-15T01:04:24;6.60;100.00
15630;DHT22;7914;50.842;0.166;2023-04-15T01:06:50;6.60;100.00
15630;DHT22;7914;50.842;0.166;2023-04-15T01:09:16;6.50;100.00
15630;DHT22;7914;50.842;0.166;2023-04-15T01:11:42;6.40;100.00
15630;DHT22;7914;50.842;0.166;2023-04-15T01:14:09;6.30;100.00
15630;DHT22;7914;50.842;0.166;2023-04-15T01:16:39;6.30;100.00
15630;DHT22;7914;50.842;0.166;2023-04-15T01:19:09;6.30;100.00
15630;DHT22;7914;50.842;0.166;2023-04-15T01:21:36;6.30;100.00
15630;DHT22;7914;50.842;0.166;2023-04-15T01:24:08;6.40;100.00
15630;DHT22;7914;50.842;0.166;2023-04-15T01:26:38;6.40;100.00
15630;DHT22;7914;50.842;0.166;2023-04-15T01:29:03;6.50;100.00
15630;DHT22;7914;50.842;0.166;2023-04-15T01:31:29;6.60;100.00
15630;DHT22;7914;50.842;0.166;2023-04-15T01:33:55;6.60;100.00
15630;DHT22;7914;50.842;0.166;2023-04-15T01:36:21;6.60;100.00
15630;DHT22;7914;50.842;0.166;2023-04-15T01:38:47;6.60;100.00
15630;DHT22;7914;50.842;0.166;2023-04-15T01:41:13;6.60;100.00
15630;DHT22;7914;50.842;0.166;2023-04-15T01:43:39;6.70;100.00
15630;DHT22;7914;50.842;0.166;2023-04-15T01:46:05;6.70;100.00
15630;DHT22;7914;50.842;0.166;2023-04-15T01:48:31;6.60;100.00
15630;DHT22;7914;50.842;0.166;2023-04-15T01:50:58;6.60;100.00
15630;DHT22;7914;50.842;0.166;2023-04-15T01:53:24;6.60;100.00
15630;DHT22;7914;50.842;0.166;2023-04-15T01:55:50;6.60;100.00
15630;DHT22;7914;50.842;0.166;2023-04-15T01:58:17;6.50;100.00
15630;DHT22;7914;50.842;0.166;2023-04-15T02:00:43;6.50;100.00
15630;DHT22;7914;50.842;0.166;2023-04-15T02:03:09;6.60;100.00
15630;DHT22;7914;50.842;0.166;2023-04-15T02:05:35;6.50;100.00
15630;DHT22;7914;50.842;0.166;2023-04-15T02:08:01;6.50;100.00
15630;DHT22;7914;50.842;0.166;2023-04-15T02:10:28;6.60;100.00
15630;DHT22;7914;50.842;0.166;2023-04-15T02:12:54;6.60;100.00
15630;DHT22;7914;50.842;0.166;2023-04-15T02:15:19;6.60;100.00
15630;DHT22;7914;50.842;0.166;2023-04-15T02:17:45;6.60;100.00
15630;DHT22;7914;50.842;0.166;2023-04-15T02:20:15;6.60;100.00
15630;DHT22;7914;50.842;0.166;2023-04-15T02:22:42;6.60;100.00
15630;DHT22;7914;50.842;0.166;2023-04-15T02:25:08;6.70;100.00
15630;DHT22;7914;50.842;0.166;2023-04-15T02:27:37;6.70;100.00
15630;DHT22;7914;50.842;0.166;2023-04-15T02:30:06;6.70;100.00
15630;DHT22;7914;50.842;0.166;2023-04-15T02:32:32;6.70;100.00
15630;DHT22;7914;50.842;0.166;2023-04-15T02:35:04;6.70;100.00
15630;DHT22;7914;50.842;0.166;2023-04-15T02:37:31;6.70;100.00
15630;DHT22;7914;50.842;0.166;2023-04-15T02:39:57;6.70;100.00
15630;DHT22;7914;50.842;0.166;2023-04-15T02:42:23;6.60;100.00
15630;DHT22;7914;50.842;0.166;2023-04-15T02:44:52;6.60;100.00
15630;DHT22;7914;50.842;0.166;2023-04-15T02:47:19;6.60;100.00
15630;DHT22;7914;50.842;0.166;2023-04-15T02:49:45;6.60;100.00
15630;DHT22;7914;50.842;0.166;2023-04-15T02:52:11;6.60;100.00
15630;DHT22;7914;50.842;0.166;2023-04-15T02:54:37;6.60;100.00
15630;DHT22;7914;50.842;0.166;2023-04-15T02:57:02;6.60;100.00
15630;DHT22;7914;50.842;0.166;2023-04-15T02:59:31;6.60;100.00
15630;DHT22;7914;50.842;0.166;2023-04-15T03:01:56;6.50;100.00
15630;DHT22;7914;50.842;0.166;2023-04-15T03:04:25;6.40;100.00
15630;DHT22;7914;50.842;0.166;2023-04-15T03:06:51;6.30;100.00
15630;DHT22;7914;50.842;0.166;2023-04-15T03:09:17;6.20;100.00
15630;DHT22;7914;50.842;0.166;2023-04-15T03:11:42;6.20;100.00
15630;DHT22;7914;50.842;0.166;2023-04-15T03:14:08;6.10;100.00
15630;DHT22;7914;50.842;0.166;2023-04-15T03:16:34;6.10;100.00
15630;DHT22;7914;50.842;0.166;2023-04-15T03:18:59;6.10;100.00
15630;DHT22;7914;50.842;0.166;2023-04-15T03:21:25;6.00;100.00
15630;DHT22;7914;50.842;0.166;2023-04-15T03:23:52;6.10;100.00
15630;DHT22;7914;50.842;0.166;2023-04-15T03:26:30;6.20;100.00
15630;DHT22;7914;50.842;0.166;2023-04-15T03:28:56;6.30;100.00
15630;DHT22;7914;50.842;0.166;2023-04-15T03:31:23;6.30;100.00
15630;DHT22;7914;50.842;0.166;2023-04-15T03:33:48;6.30;100.00
15630;DHT22;7914;50.842;0.166;2023-04-15T03:36:15;6.30;100.00
15630;DHT22;7914;50.842;0.166;2023-04-15T03:38:41;6.40;100.00
15630;DHT22;7914;50.842;0.166;2023-04-15T03:41:07;6.50;100.00
15630;DHT22;7914;50.842;0.166;2023-04-15T03:43:36;6.50;100.00
15630;DHT22;7914;50.842;0.166;2023-04-15T03:46:02;6.50;100.00
15630;DHT22;7914;50.842;0.166;2023-04-15T03:48:28;6.50;100.00
15630;DHT22;7914;50.842;0.166;2023-04-15T03:50:53;6.60;100.00
15630;DHT22;7914;50.842;0.166;2023-04-15T03:53:20;6.60;100.00
15630;DHT22;7914;50.842;0.166;2023-04-15T03:55:45;6.60;100.00
15630;DHT22;7914;50.842;0.166;2023-04-15T03:58:11;6.60;100.00
15630;DHT22;7914;50.842;0.166;2023-04-15T04:00:38;6.60;100.00
15630;DHT22;7914;50.842;0.166;2023-04-15T04:03:03;6.50;100.00
15630;DHT22;7914;50.842;0.166;2023-04-15T04:05:29;6.50;100.00
15630;DHT22;7914;50.842;0.166;2023-04-15T04:07:58;6.50;100.00
15630;DHT22;7914;50.842;0.166;2023-04-15T04:10:24;6.50;100.00
15630;DHT22;7914;50.842;0.166;2023-04-15T04:12:50;6.50;100.00
15630;DHT22;7914;50.842;0.166;2023-04-15T04:15:15;6.50;100.00
15630;DHT22;7914;50.842;0.166;2023-04-15T04:17:41;6.50;100.00
15630;DHT22;7914;50.842;0.166;2023-04-15T04:20:07;6.40;100.00
15630;DHT22;7914;50.842;0.166;2023-04-15T04:22:39;6.40;100.00
15630;DHT22;7914;50.842;0.166;2023-04-15T04:25:06;6.30;100.00
15630;DHT22;7914;50.842;0.166;2023-04-15T04:27:33;6.30;100.00
15630;DHT22;7914;50.842;0.166;2023-04-15T04:29:59;6.30;100.00
15630;DHT22;7914;50.842;0.166;2023-04-15T04:32:25;6.30;100.00
15630;DHT22;7914;50.842;0.166;2023-04-15T04:34:51;6.40;100.00
15630;DHT22;7914;50.842;0.166;2023-04-15T04:37:16;6.40;100.00
15630;DHT22;7914;50.842;0.166;2023-04-15T04:39:42;6.40;100.00
15630;DHT22;7914;50.842;0.166;2023-04-15T04:42:08;6.40;100.00
15630;DHT22;7914;50.842;0.166;2023-04-15T04:44:34;6.50;100.00
15630;DHT22;7914;50.842;0.166;2023-04-15T04:46:59;6.40;100.00
15630;DHT22;7914;50.842;0.166;2023-04-15T04:49:25;6.50;100.00
15630;DHT22;7914;50.842;0.166;2023-04-15T04:51:51;6.50;100.00
15630;DHT22;7914;50.842;0.166;2023-04-15T04:54:16;6.50;100.00
15630;DHT22;7914;50.842;0.166;2023-04-15T04:56:42;6.50;100.00
15630;DHT22;7914;50.842;0.166;2023-04-15T04:59:08;6.50;100.00
15630;DHT22;7914;50.842;0.166;2023-04-15T05:01:34;6.50;100.00
15630;DHT22;7914;50.842;0.166;2023-04-15T05:03:59;6.60;100.00
15630;DHT22;7914;50.842;0.166;2023-04-15T05:06:25;6.60;100.00
15630;DHT22;7914;50.842;0.166;2023-04-15T05:08:52;6.60;100.00
15630;DHT22;7914;50.842;0.166;2023-04-15T05:11:17;6.60;100.00
15630;DHT22;7914;50.842;0.166;2023-04-15T05:13:43;6.60;100.00
15630;DHT22;7914;50.842;0.166;2023-04-15T05:16:09;6.70;100.00
15630;DHT22;7914;50.842;0.166;2023-04-15T05:18:34;6.70;100.00
15630;DHT22;7914;50.842;0.166;2023-04-15T05:21:01;6.60;100.00
15630;DHT22;7914;50.842;0.166;2023-04-15T05:23:27;6.70;100.00
15630;DHT22;7914;50.842;0.166;2023-04-15T05:25:52;6.70;100.00
15630;DHT22;7914;50.842;0.166;2023-04-15T05:28:18;6.70;100.00
15630;DHT22;7914;50.842;0.166;2023-04-15T05:30:44;6.80;100.00
15630;DHT22;7914;50.842;0.166;2023-04-15T05:33:10;6.80;100.00
15630;DHT22;7914;50.842;0.166;2023-04-15T05:35:36;6.80;100.00
15630;DHT22;7914;50.842;0.166;2023-04-15T05:38:02;6.80;100.00
15630;DHT22;7914;50.842;0.166;2023-04-15T05:40:29;6.80;100.00
15630;DHT22;7914;50.842;0.166;2023-04-15T05:42:55;6.90;100.00
15630;DHT22;7914;50.842;0.166;2023-04-15T05:45:21;6.80;100.00
15630;DHT22;7914;50.842;0.166;2023-04-15T05:47:47;6.80;100.00
15630;DHT22;7914;50.842;0.166;2023-04-15T05:50:15;6.90;100.00
15630;DHT22;7914;50.842;0.166;2023-04-15T05:52:41;6.90;100.00
15630;DHT22;7914;50.842;0.166;2023-04-15T05:55:07;6.90;100.00
15630;DHT22;7914;50.842;0.166;2023-04-15T05:57:33;7.00;100.00
15630;DHT22;7914;50.842;0.166;2023-04-15T05:59:58;7.10;100.00
15630;DHT22;7914;50.842;0.166;2023-04-15T06:02:24;7.10;100.00
15630;DHT22;7914;50.842;0.166;2023-04-15T06:04:50;7.10;100.00
15630;DHT22;7914;50.842;0.166;2023-04-15T06:07:16;7.20;100.00
15630;DHT22;7914;50.842;0.166;2023-04-15T06:09:42;7.20;100.00
15630;DHT22;7914;50.842;0.166;2023-04-15T06:12:09;7.30;100.00
15630;DHT22;7914;50.842;0.166;2023-04-15T06:14:39;7.30;100.00
15630;DHT22;7914;50.842;0.166;2023-04-15T06:17:05;7.30;100.00
15630;DHT22;7914;50.842;0.166;2023-04-15T06:19:32;7.30;100.00
15630;DHT22;7914;50.842;0.166;2023-04-15T06:21:58;7.30;100.00
15630;DHT22;7914;50.842;0.166;2023-04-15T06:24:24;7.50;100.00
15630;DHT22;7914;50.842;0.166;2023-04-15T06:26:50;7.80;100.00
15630;DHT22;7914;50.842;0.166;2023-04-15T06:29:15;8.00;100.00
15630;DHT22;7914;50.842;0.166;2023-04-15T06:31:41;8.00;100.00
15630;DHT22;7914;50.842;0.166;2023-04-15T06:34:07;7.90;100.00
15630;DHT22;7914;50.842;0.166;2023-04-15T06:36:32;7.80;100.00
15630;DHT22;7914;50.842;0.166;2023-04-15T06:38:58;7.80;100.00
15630;DHT22;7914;50.842;0.166;2023-04-15T06:41:24;7.80;100.00
15630;DHT22;7914;50.842;0.166;2023-04-15T06:43:50;7.90;100.00
15630;DHT22;7914;50.842;0.166;2023-04-15T06:46:16;7.90;100.00
15630;DHT22;7914;50.842;0.166;2023-04-15T06:48:41;7.80;100.00
15630;DHT22;7914;50.842;0.166;2023-04-15T06:51:07;7.70;100.00
15630;DHT22;7914;50.842;0.166;2023-04-15T06:53:33;7.80;100.00
15630;DHT22;7914;50.842;0.166;2023-04-15T06:56:00;7.80;100.00
15630;DHT22;7914;50.842;0.166;2023-04-15T06:58:25;7.80;100.00
15630;DHT22;7914;50.842;0.166;2023-04-15T07:00:52;7.90;100.00
15630;DHT22;7914;50.842;0.166;2023-04-15T07:03:17;7.90;100.00
15630;DHT22;7914;50.842;0.166;2023-04-15T07:05:43;8.00;100.00
15630;DHT22;7914;50.842;0.166;2023-04-15T07:08:09;8.10;100.00
15630;DHT22;7914;50.842;0.166;2023-04-15T07:10:35;8.00;100.00
15630;DHT22;7914;50.842;0.166;2023-04-15T07:13:01;8.10;100.00
15630;DHT22;7914;50.842;0.166;2023-04-15T07:15:27;8.20;100.00
15630;DHT22;7914;50.842;0.166;2023-04-15T07:17:53;8.20;100.00
15630;DHT22;7914;50.842;0.166;2023-04-15T07:20:19;8.10;100.00
15630;DHT22;7914;50.842;0.166;2023-04-15T07:22:44;8.30;100.00
15630;DHT22;7914;50.842;0.166;2023-04-15T07:25:10;8.40;100.00
15630;DHT22;7914;50.842;0.166;2023-04-15T07:31:17;8.70;100.00
15630;DHT22;7914;50.842;0.166;2023-04-15T07:33:42;8.60;100.00
15630;DHT22;7914;50.842;0.166;2023-04-15T07:36:08;8.50;100.00
15630;DHT22;7914;50.842;0.166;2023-04-15T07:38:35;8.40;100.00
15630;DHT22;7914;50.842;0.166;2023-04-15T07:41:00;8.40;100.00
15630;DHT22;7914;50.842;0.166;2023-04-15T07:43:26;8.40;100.00
15630;DHT22;7914;50.842;0.166;2023-04-15T07:45:52;8.50;100.00
15630;DHT22;7914;50.842;0.166;2023-04-15T07:48:17;8.60;100.00
15630;DHT22;7914;50.842;0.166;2023-04-15T07:50:43;8.60;100.00
15630;DHT22;7914;50.842;0.166;2023-04-15T07:53:09;8.60;100.00
15630;DHT22;7914;50.842;0.166;2023-04-15T07:55:34;8.60;100.00
15630;DHT22;7914;50.842;0.166;2023-04-15T07:58:00;8.50;100.00
15630;DHT22;7914;50.842;0.166;2023-04-15T08:00:26;8.50;100.00
15630;DHT22;7914;50.842;0.166;2023-04-15T08:02:52;8.60;100.00
15630;DHT22;7914;50.842;0.166;2023-04-15T08:05:18;8.90;100.00
15630;DHT22;7914;50.842;0.166;2023-04-15T08:07:44;9.10;99.80
15630;DHT22;7914;50.842;0.166;2023-04-15T08:10:10;9.10;99.20
15630;DHT22;7914;50.842;0.166;2023-04-15T08:12:36;9.30;98.00
15630;DHT22;7914;50.842;0.166;2023-04-15T08:15:03;9.40;97.20
15630;DHT22;7914;50.842;0.166;2023-04-15T08:17:28;9.50;96.80
15630;DHT22;7914;50.842;0.166;2023-04-15T08:19:54;9.60;96.50
15630;DHT22;7914;50.842;0.166;2023-04-15T08:22:20;9.80;95.90
15630;DHT22;7914;50.842;0.166;2023-04-15T08:24:46;9.80;95.70
15630;DHT22;7914;50.842;0.166;2023-04-15T08:27:11;10.00;94.80
15630;DHT22;7914;50.842;0.166;2023-04-15T08:29:37;10.20;92.00
15630;DHT22;7914;50.842;0.166;2023-04-15T08:32:03;10.20;92.50
15630;DHT22;7914;50.842;0.166;2023-04-15T08:34:29;10.30;92.80
15630;DHT22;7914;50.842;0.166;2023-04-15T08:36:55;10.50;92.70
15630;DHT22;7914;50.842;0.166;2023-04-15T08:39:21;10.80;90.60
15630;DHT22;7914;50.842;0.166;2023-04-15T08:42:00;10.80;91.50
15630;DHT22;7914;50.842;0.166;2023-04-15T08:44:29;10.60;91.40
15630;DHT22;7914;50.842;0.166;2023-04-15T08:47:00;10.60;91.70
15630;DHT22;7914;50.842;0.166;2023-04-15T08:49:27;10.90;92.70
15630;DHT22;7914;50.842;0.166;2023-04-15T08:51:55;11.30;90.40
15630;DHT22;7914;50.842;0.166;2023-04-15T08:54:22;11.50;89.20
15630;DHT22;7914;50.842;0.166;2023-04-15T08:56:49;12.10;89.80
15630;DHT22;7914;50.842;0.166;2023-04-15T08:59:14;12.30;85.70
15630;DHT22;7914;50.842;0.166;2023-04-15T09:01:41;12.70;85.70
15630;DHT22;7914;50.842;0.166;2023-04-15T09:04:07;12.60;83.10
15630;DHT22;7914;50.842;0.166;2023-04-15T09:06:33;12.50;85.60
15630;DHT22;7914;50.842;0.166;2023-04-15T09:08:59;12.40;83.40
15630;DHT22;7914;50.842;0.166;2023-04-15T09:11:25;12.00;85.30
15630;DHT22;7914;50.842;0.166;2023-04-15T09:13:51;11.70;87.30
15630;DHT22;7914;50.842;0.166;2023-04-15T09:16:17;11.80;88.90
15630;DHT22;7914;50.842;0.166;2023-04-15T09:18:43;12.10;86.20
15630;DHT22;7914;50.842;0.166;2023-04-15T09:21:11;12.60;84.80
15630;DHT22;7914;50.842;0.166;2023-04-15T09:23:38;12.90;82.10
15630;DHT22;7914;50.842;0.166;2023-04-15T09:26:05;12.80;82.10
15630;DHT22;7914;50.842;0.166;2023-04-15T09:28:31;12.70;80.80
15630;DHT22;7914;50.842;0.166;2023-04-15T09:30:57;12.60;79.90
15630;DHT22;7914;50.842;0.166;2023-04-15T09:33:24;12.60;83.10
15630;DHT22;7914;50.842;0.166;2023-04-15T09:36:02;12.60;82.10
15630;DHT22;7914;50.842;0.166;2023-04-15T09:38:28;12.60;84.00
15630;DHT22;7914;50.842;0.166;2023-04-15T09:40:54;12.80;85.50
15630;DHT22;7914;50.842;0.166;2023-04-15T09:43:20;12.60;83.50
15630;DHT22;7914;50.842;0.166;2023-04-15T09:45:51;12.60;82.30
15630;DHT22;7914;50.842;0.166;2023-04-15T09:48:24;12.70;83.50
15630;DHT22;7914;50.842;0.166;2023-04-15T09:51:00;12.70;81.20
15630;DHT22;7914;50.842;0.166;2023-04-15T09:53:27;12.40;80.90
15630;DHT22;7914;50.842;0.166;2023-04-15T09:55:55;12.60;83.70
15630;DHT22;7914;50.842;0.166;2023-04-15T09:58:26;12.80;81.20
15630;DHT22;7914;50.842;0.166;2023-04-15T10:00:54;12.90;79.30
15630;DHT22;7914;50.842;0.166;2023-04-15T10:03:30;12.80;78.30
15630;DHT22;7914;50.842;0.166;2023-04-15T10:05:59;12.40;77.20
15630;DHT22;7914;50.842;0.166;2023-04-15T10:08:30;11.90;81.00
15630;DHT22;7914;50.842;0.166;2023-04-15T10:10:57;11.80;82.00
15630;DHT22;7914;50.842;0.166;2023-04-15T10:13:25;11.90;81.70
15630;DHT22;7914;50.842;0.166;2023-04-15T10:15:59;11.80;80.70
15630;DHT22;7914;50.842;0.166;2023-04-15T10:18:27;11.30;82.80
15630;DHT22;7914;50.842;0.166;2023-04-15T10:20:53;11.30;84.10
15630;DHT22;7914;50.842;0.166;2023-04-15T10:23:21;11.50;83.70
15630;DHT22;7914;50.842;0.166;2023-04-15T10:25:48;12.00;82.00
15630;DHT22;7914;50.842;0.166;2023-04-15T10:28:15;12.10;82.00
15630;DHT22;7914;50.842;0.166;2023-04-15T10:30:42;12.50;82.70
15630;DHT22;7914;50.842;0.166;2023-04-15T10:33:08;13.00;80.50
15630;DHT22;7914;50.842;0.166;2023-04-15T10:35:35;13.20;78.70
15630;DHT22;7914;50.842;0.166;2023-04-15T10:38:01;13.50;77.90
15630;DHT22;7914;50.842;0.166;2023-04-15T10:40:31;13.80;78.30
15630;DHT22;7914;50.842;0.166;2023-04-15T10:43:01;13.80;77.30
15630;DHT22;7914;50.842;0.166;2023-04-15T10:45:32;13.50;76.40
15630;DHT22;7914;50.842;0.166;2023-04-15T10:48:00;13.70;77.40
15630;DHT22;7914;50.842;0.166;2023-04-15T10:50:27;13.70;77.80
15630;DHT22;7914;50.842;0.166;2023-04-15T10:52:56;13.60;76.70
15630;DHT22;7914;50.842;0.166;2023-04-15T10:55:24;13.90;76.40
15630;DHT22;7914;50.842;0.166;2023-04-15T10:57:55;14.00;76.90
15630;DHT22;7914;50.842;0.166;2023-04-15T11:00:28;14.10;76.30
15630;DHT22;7914;50.842;0.166;2023-04-15T11:03:09;14.00;76.90
15630;DHT22;7914;50.842;0.166;2023-04-15T11:05:52;13.80;75.40
15630;DHT22;7914;50.842;0.166;2023-04-15T11:08:18;13.60;77.90
15630;DHT22;7914;50.842;0.166;2023-04-15T11:14:15;13.70;79.50
15630;DHT22;7914;50.842;0.166;2023-04-15T11:16:42;14.00;76.90
15630;DHT22;7914;50.842;0.166;2023-04-15T11:19:09;14.00;76.00
15630;DHT22;7914;50.842;0.166;2023-04-15T11:21:35;14.10;75.40
15630;DHT22;7914;50.842;0.166;2023-04-15T11:24:01;13.80;75.70
15630;DHT22;7914;50.842;0.166;2023-04-15T11:26:26;13.50;77.20
15630;DHT22;7914;50.842;0.166;2023-04-15T11:28:52;13.20;79.10
15630;DHT22;7914;50.842;0.166;2023-04-15T11:31:18;13.40;77.30
15630;DHT22;7914;50.842;0.166;2023-04-15T11:33:58;13.30;77.00
15630;DHT22;7914;50.842;0.166;2023-04-15T11:36:29;13.30;78.50
15630;DHT22;7914;50.842;0.166;2023-04-15T11:38:57;13.30;77.90
15630;DHT22;7914;50.842;0.166;2023-04-15T11:41:23;13.40;77.90
15630;DHT22;7914;50.842;0.166;2023-04-15T11:43:50;13.80;77.70
15630;DHT22;7914;50.842;0.166;2023-04-15T11:46:16;14.60;77.30
15630;DHT22;7914;50.842;0.166;2023-04-15T11:48:44;14.30;72.20
15630;DHT22;7914;50.842;0.166;2023-04-15T11:51:11;13.80;72.80
15630;DHT22;7914;50.842;0.166;2023-04-15T11:53:45;13.60;73.70
15630;DHT22;7914;50.842;0.166;2023-04-15T11:56:25;13.70;73.00
15630;DHT22;7914;50.842;0.166;2023-04-15T11:58:55;13.90;73.10
15630;DHT22;7914;50.842;0.166;2023-04-15T12:01:36;14.30;73.20
15630;DHT22;7914;50.842;0.166;2023-04-15T12:04:10;14.90;71.50
15630;DHT22;7914;50.842;0.166;2023-04-15T12:06:37;14.80;67.60
15630;DHT22;7914;50.842;0.166;2023-04-15T12:09:07;14.40;68.80
15630;DHT22;7914;50.842;0.166;2023-04-15T12:11:36;14.00;68.90
15630;DHT22;7914;50.842;0.166;2023-04-15T12:16:48;13.60;71.50
15630;DHT22;7914;50.842;0.166;2023-04-15T12:19:16;13.60;74.80
15630;DHT22;7914;50.842;0.166;2023-04-15T12:21:46;13.90;74.60
15630;DHT22;7914;50.842;0.166;2023-04-15T12:24:13;14.40;74.60
15630;DHT22;7914;50.842;0.166;2023-04-15T12:26:50;14.60;73.40
15630;DHT22;7914;50.842;0.166;2023-04-15T12:29:17;15.00;69.50
15630;DHT22;7914;50.842;0.166;2023-04-15T12:31:51;15.00;69.20
15630;DHT22;7914;50.842;0.166;2023-04-15T12:34:25;14.70;70.50
15630;DHT22;7914;50.842;0.166;2023-04-15T12:36:52;14.70;72.00
15630;DHT22;7914;50.842;0.166;2023-04-15T12:39:24;14.80;67.00
15630;DHT22;7914;50.842;0.166;2023-04-15T12:41:51;15.00;69.90
15630;DHT22;7914;50.842;0.166;2023-04-15T12:44:17;15.40;68.80
15630;DHT22;7914;50.842;0.166;2023-04-15T12:46:43;15.30;68.40
15630;DHT22;7914;50.842;0.166;2023-04-15T12:49:08;15.30;67.60
15630;DHT22;7914;50.842;0.166;2023-04-15T12:51:34;15.10;68.20
15630;DHT22;7914;50.842;0.166;2023-04-15T12:54:00;14.70;67.10
15630;DHT22;7914;50.842;0.166;2023-04-15T12:56:25;14.60;69.80
15630;DHT22;7914;50.842;0.166;2023-04-15T12:58:51;14.70;70.70
15630;DHT22;7914;50.842;0.166;2023-04-15T13:01:17;15.00;69.90
15630;DHT22;7914;50.842;0.166;2023-04-15T13:03:43;15.10;70.10
15630;DHT22;7914;50.842;0.166;2023-04-15T13:06:09;15.00;68.90
15630;DHT22;7914;50.842;0.166;2023-04-15T13:08:36;14.50;69.10
15630;DHT22;7914;50.842;0.166;2023-04-15T13:11:02;14.10;70.00
15630;DHT22;7914;50.842;0.166;2023-04-15T13:13:28;13.70;71.20
15630;DHT22;7914;50.842;0.166;2023-04-15T13:15:56;13.70;71.10
15630;DHT22;7914;50.842;0.166;2023-04-15T13:18:22;13.80;71.80
15630;DHT22;7914;50.842;0.166;2023-04-15T13:20:48;14.30;71.00
15630;DHT22;7914;50.842;0.166;2023-04-15T13:23:14;14.90;69.30
15630;DHT22;7914;50.842;0.166;2023-04-15T13:25:40;15.60;67.80
15630;DHT22;7914;50.842;0.166;2023-04-15T13:28:05;16.00;68.30
15630;DHT22;7914;50.842;0.166;2023-04-15T13:30:31;16.10;66.40
15630;DHT22;7914;50.842;0.166;2023-04-15T13:32:57;15.70;63.90
15630;DHT22;7914;50.842;0.166;2023-04-15T13:35:22;15.20;65.00
15630;DHT22;7914;50.842;0.166;2023-04-15T13:37:48;14.80;67.20
15630;DHT22;7914;50.842;0.166;2023-04-15T13:40:15;14.60;68.60
15630;DHT22;7914;50.842;0.166;2023-04-15T13:42:41;14.80;68.90
15630;DHT22;7914;50.842;0.166;2023-04-15T13:45:07;15.10;69.10
15630;DHT22;7914;50.842;0.166;2023-04-15T13:47:33;15.50;66.50
15630;DHT22;7914;50.842;0.166;2023-04-15T13:49:59;15.80;65.30
15630;DHT22;7914;50.842;0.166;2023-04-15T13:52:24;15.70;63.90
15630;DHT22;7914;50.842;0.166;2023-04-15T13:54:50;15.60;62.60
15630;DHT22;7914;50.842;0.166;2023-04-15T13:57:16;15.10;63.30
15630;DHT22;7914;50.842;0.166;2023-04-15T13:59:42;14.70;64.80
15630;DHT22;7914;50.842;0.166;2023-04-15T14:02:08;14.40;67.20
15630;DHT22;7914;50.842;0.166;2023-04-15T14:04:34;14.30;67.70
15630;DHT22;7914;50.842;0.166;2023-04-15T14:07:00;14.50;68.20
15630;DHT22;7914;50.842;0.166;2023-04-15T14:09:25;14.70;67.50
15630;DHT22;7914;50.842;0.166;2023-04-15T14:11:51;15.00;66.60
15630;DHT22;7914;50.842;0.166;2023-04-15T14:14:17;15.40;64.90
15630;DHT22;7914;50.842;0.166;2023-04-15T14:16:43;15.60;63.20
15630;DHT22;7914;50.842;0.166;2023-04-15T14:19:09;15.40;62.30
15630;DHT22;7914;50.842;0.166;2023-04-15T14:21:34;15.40;63.80
15630;DHT22;7914;50.842;0.166;2023-04-15T14:24:00;15.20;65.40
15630;DHT22;7914;50.842;0.166;2023-04-15T14:26:26;14.90;63.80
15630;DHT22;7914;50.842;0.166;2023-04-15T14:28:51;14.80;64.30
15630;DHT22;7914;50.842;0.166;2023-04-15T14:31:18;14.60;62.80
15630;DHT22;7914;50.842;0.166;2023-04-15T14:33:43;14.70;64.10
15630;DHT22;7914;50.842;0.166;2023-04-15T14:36:09;15.00;64.30
15630;DHT22;7914;50.842;0.166;2023-04-15T14:38:36;15.40;63.20
15630;DHT22;7914;50.842;0.166;2023-04-15T14:41:06;15.90;64.20
15630;DHT22;7914;50.842;0.166;2023-04-15T14:43:32;16.30;62.00
15630;DHT22;7914;50.842;0.166;2023-04-15T14:45:58;16.50;60.60
15630;DHT22;7914;50.842;0.166;2023-04-15T14:48:24;16.80;60.20
15630;DHT22;7914;50.842;0.166;2023-04-15T14:50:51;16.70;58.80
15630;DHT22;7914;50.842;0.166;2023-04-15T14:53:16;16.40;59.40
15630;DHT22;7914;50.842;0.166;2023-04-15T14:55:42;16.30;61.70
15630;DHT22;7914;50.842;0.166;2023-04-15T14:58:08;16.30;61.20
15630;DHT22;7914;50.842;0.166;2023-04-15T15:00:35;16.30;62.70
15630;DHT22;7914;50.842;0.166;2023-04-15T15:03:03;16.10;62.70
15630;DHT22;7914;50.842;0.166;2023-04-15T15:05:37;15.70;61.60
15630;DHT22;7914;50.842;0.166;2023-04-15T15:08:03;15.40;64.10
15630;DHT22;7914;50.842;0.166;2023-04-15T15:10:28;15.30;64.40
15630;DHT22;7914;50.842;0.166;2023-04-15T15:12:54;15.00;63.70
15630;DHT22;7914;50.842;0.166;2023-04-15T15:15:20;15.00;64.90
15630;DHT22;7914;50.842;0.166;2023-04-15T15:17:45;15.10;61.60
15630;DHT22;7914;50.842;0.166;2023-04-15T15:20:11;15.10;61.70
15630;DHT22;7914;50.842;0.166;2023-04-15T15:22:37;15.20;63.10
15630;DHT22;7914;50.842;0.166;2023-04-15T15:25:03;15.30;64.20
15630;DHT22;7914;50.842;0.166;2023-04-15T15:27:29;15.60;62.80
15630;DHT22;7914;50.842;0.166;2023-04-15T15:29:55;15.80;61.90
15630;DHT22;7914;50.842;0.166;2023-04-15T15:32:21;15.90;60.70
15630;DHT22;7914;50.842;0.166;2023-04-15T15:34:46;16.10;61.70
15630;DHT22;7914;50.842;0.166;2023-04-15T15:37:12;16.40;59.90
15630;DHT22;7914;50.842;0.166;2023-04-15T15:39:38;16.40;52.10
15630;DHT22;7914;50.842;0.166;2023-04-15T15:42:04;16.50;56.20
15630;DHT22;7914;50.842;0.166;2023-04-15T15:44:31;16.30;55.20
15630;DHT22;7914;50.842;0.166;2023-04-15T15:46:58;16.30;54.90
15630;DHT22;7914;50.842;0.166;2023-04-15T15:49:24;16.30;54.70
15630;DHT22;7914;50.842;0.166;2023-04-15T15:51:50;16.10;58.00
15630;DHT22;7914;50.842;0.166;2023-04-15T15:54:16;15.80;60.20